sensor_id;sensor_type;location;lat;lon;timestamp;pressure;altitude;pressure_sealevel;temperature;humidity
50123;BME280;36021;48.670;6.184;2023-05-25T00:01:14;99423.25;;;13.88;100.00
50123;BME280;36021;48.670;6.184;2023-05-25T00:03:40;99416.97;;;13.69;100.00
50123;BME280;36021;48.670;6.184;2023-05-25T00:06:07;99420.28;;;13.71;100.00
50123;BME280;36021;48.670;6.184;2023-05-25T00:08:34;99410.22;;;13.75;100.00
50123;BME280;36021;48.670;6.184;2023-05-25T00:11:00;99415.56;;;13.85;100.00
50123;BME280;36021;48.670;6.184;2023-05-25T00:13:25;99418.75;;;13.92;100.00
50123;BME280;36021;48.670;6.184;2023-05-25T00:15:51;99411.03;;;13.89;100.00
50123;BME280;36021;48.670;6.184;2023-05-25T00:18:17;99409.41;;;13.88;100.00
50123;BME280;36021;48.670;6.184;2023-05-25T00:20:42;99411.03;;;13.89;100.00
50123;BME280;36021;48.670;6.184;2023-05-25T00:23:09;99410.31;;;13.70;100.00
50123;BME280;36021;48.670;6.184;2023-05-25T00:25:34;99397.72;;;13.77;100.00
50123;BME280;36021;48.670;6.184;2023-05-25T00:28:00;99399.97;;;13.89;100.00
50123;BME280;36021;48.670;6.184;2023-05-25T00:30:29;99395.03;;;13.99;100.00
50123;BME280;36021;48.670;6.184;2023-05-25T00:32:58;99398.94;;;13.85;100.00
50123;BME280;36021;48.670;6.184;2023-05-25T00:35:25;99405.81;;;13.74;100.00
50123;BME280;36021;48.670;6.184;2023-05-25T00:37:52;99395.63;;;13.55;100.00
50123;BME280;36021;48.670;6.184;2023-05-25T00:40:19;99399.44;;;13.60;100.00
50123;BME280;36021;48.670;6.184;2023-05-25T00:42:46;99388.97;;;13.56;100.00
50123;BME280;36021;48.670;6.184;2023-05-25T00:45:11;99396.75;;;13.68;100.00
50123;BME280;36021;48.670;6.184;2023-05-25T00:47:41;99404.44;;;13.71;100.00
50123;BME280;36021;48.670;6.184;2023-05-25T00:50:14;99398.31;;;13.61;100.00
50123;BME280;36021;48.670;6.184;2023-05-25T00:52:41;99400.34;;;13.69;100.00
50123;BME280;36021;48.670;6.184;2023-05-25T00:55:09;99398.31;;;13.74;100.00
50123;BME280;36021;48.670;6.184;2023-05-25T00:57:37;99406.31;;;13.76;100.00
50123;BME280;36021;48.670;6.184;2023-05-25T01:00:12;99398.00;;;13.76;100.00
50123;BME280;36021;48.670;6.184;2023-05-25T01:02:39;99399.34;;;13.78;100.00
50123;BME280;36021;48.670;6.184;2023-05-25T01:05:09;99401.28;;;13.78;100.00
50123;BME280;36021;48.670;6.184;2023-05-25T01:07:38;99400.59;;;13.86;100.00
50123;BME280;36021;48.670;6.184;2023-05-25T01:10:05;99392.56;;;13.71;100.00
50123;BME280;36021;48.670;6.184;2023-05-25T01:12:36;99391.56;;;13.80;100.00
50123;BME280;36021;48.670;6.184;2023-05-25T01:15:03;99393.88;;;13.60;100.00
50123;BME280;36021;48.670;6.184;2023-05-25T01:17:30;99394.38;;;13.62;100.00
50123;BME280;36021;48.670;6.184;2023-05-25T01:19:57;99401.50;;;13.68;100.00
50123;BME280;36021;48.670;6.184;2023-05-25T01:25:06;99389.69;;;13.76;100.00
50123;BME280;36021;48.670;6.184;2023-05-25T01:30:08;99390.13;;;13.83;100.00
50123;BME280;36021;48.670;6.184;2023-05-25T01:32:35;99390.75;;;13.93;100.00
50123;BME280;36021;48.670;6.184;2023-05-25T01:35:03;99386.81;;;13.81;100.00
50123;BME280;36021;48.670;6.184;2023-05-25T01:37:29;99388.88;;;13.75;100.00
50123;BME280;36021;48.670;6.184;2023-05-25T01:39:58;99392.34;;;13.81;100.00
50123;BME280;36021;48.670;6.184;2023-05-25T01:42:24;99399.34;;;13.78;100.00
50123;BME280;36021;48.670;6.184;2023-05-25T01:44:50;99396.03;;;13.63;100.00
50123;BME280;36021;48.670;6.184;2023-05-25T01:50:06;99402.31;;;13.54;100.00
50123;BME280;36021;48.670;6.184;2023-05-25T01:52:40;99414.69;;;13.43;100.00
50123;BME280;36021;48.670;6.184;2023-05-25T01:55:14;99408.03;;;13.44;100.00
50123;BME280;36021;48.670;6.184;2023-05-25T01:57:48;99413.72;;;13.34;100.00
50123;BME280;36021;48.670;6.184;2023-05-25T02:00:17;99413.09;;;13.24;100.00
50123;BME280;36021;48.670;6.184;2023-05-25T02:02:46;99414.50;;;13.21;100.00
50123;BME280;36021;48.670;6.184;2023-05-25T02:05:12;99413.97;;;13.19;100.00
50123;BME280;36021;48.670;6.184;2023-05-25T02:07:38;99421.31;;;13.10;100.00
50123;BME280;36021;48.670;6.184;2023-05-25T02:10:05;99410.47;;;13.14;100.00
50123;BME280;36021;48.670;6.184;2023-05-25T02:12:31;99419.06;;;13.12;100.00
50123;BME280;36021;48.670;6.184;2023-05-25T02:14:57;99404.78;;;13.24;100.00
50123;BME280;36021;48.670;6.184;2023-05-25T02:17:23;99410.84;;;13.07;100.00
50123;BME280;36021;48.670;6.184;2023-05-25T02:19:52;99411.91;;;13.11;100.00
50123;BME280;36021;48.670;6.184;2023-05-25T02:22:22;99414.50;;;13.02;100.00
50123;BME280;36021;48.670;6.184;2023-05-25T02:24:48;99410.53;;;12.90;100.00
50123;BME280;36021;48.670;6.184;2023-05-25T02:27:14;99409.00;;;12.84;100.00
50123;BME280;36021;48.670;6.184;2023-05-25T02:29:43;99408.91;;;12.70;100.00
50123;BME280;36021;48.670;6.184;2023-05-25T02:32:09;99415.13;;;12.81;100.00
50123;BME280;36021;48.670;6.184;2023-05-25T02:34:35;99418.34;;;12.69;100.00
50123;BME280;36021;48.670;6.184;2023-05-25T02:37:02;99413.47;;;12.61;100.00
50123;BME280;36021;48.670;6.184;2023-05-25T02:39:31;99413.94;;;12.68;100.00
50123;BME280;36021;48.670;6.184;2023-05-25T02:41:58;99420.22;;;12.55;100.00
50123;BME280;36021;48.670;6.184;2023-05-25T02:44:25;99418.31;;;12.50;100.00
50123;BME280;36021;48.670;6.184;2023-05-25T02:46:51;99423.34;;;12.48;100.00
50123;BME280;36021;48.670;6.184;2023-05-25T02:49:20;99424.44;;;12.47;100.00
50123;BME280;36021;48.670;6.184;2023-05-25T02:51:46;99420.13;;;12.41;100.00
50123;BME280;36021;48.670;6.184;2023-05-25T02:54:12;99418.31;;;12.50;100.00
50123;BME280;36021;48.670;6.184;2023-05-25T02:56:38;99421.22;;;12.40;100.00
50123;BME280;36021;48.670;6.184;2023-05-25T02:59:05;99427.06;;;12.39;100.00
50123;BME280;36021;48.670;6.184;2023-05-25T03:01:32;99415.09;;;12.43;100.00
50123;BME280;36021;48.670;6.184;2023-05-25T03:03:59;99427.28;;;12.42;100.00
50123;BME280;36021;48.670;6.184;2023-05-25T03:06:27;99418.19;;;12.42;100.00
50123;BME280;36021;48.670;6.184;2023-05-25T03:09:01;99426.47;;;12.42;100.00
50123;BME280;36021;48.670;6.184;2023-05-25T03:11:30;99434.31;;;12.53;100.00
50123;BME280;36021;48.670;6.184;2023-05-25T03:13:56;99444.84;;;12.51;100.00
50123;BME280;36021;48.670;6.184;2023-05-25T03:16:22;99439.97;;;12.43;100.00
50123;BME280;36021;48.670;6.184;2023-05-25T03:18:48;99432.59;;;12.39;100.00
50123;BME280;36021;48.670;6.184;2023-05-25T03:21:13;99448.91;;;12.17;100.00
50123;BME280;36021;48.670;6.184;2023-05-25T03:23:45;99445.78;;;12.23;100.00
50123;BME280;36021;48.670;6.184;2023-05-25T03:26:11;99445.97;;;12.08;100.00
50123;BME280;36021;48.670;6.184;2023-05-25T03:28:38;99452.25;;;12.14;100.00
50123;BME280;36021;48.670;6.184;2023-05-25T03:31:04;99456.72;;;12.10;100.00
50123;BME280;36021;48.670;6.184;2023-05-25T03:33:29;99455.44;;;12.02;100.00
50123;BME280;36021;48.670;6.184;2023-05-25T03:35:55;99453.56;;;11.97;100.00
50123;BME280;36021;48.670;6.184;2023-05-25T03:38:22;99446.03;;;12.03;100.00
50123;BME280;36021;48.670;6.184;2023-05-25T03:40:48;99447.69;;;12.04;100.00
50123;BME280;36021;48.670;6.184;2023-05-25T03:43:15;99452.72;;;11.97;100.00
50123;BME280;36021;48.670;6.184;2023-05-25T03:45:43;99447.31;;;11.87;100.00
50123;BME280;36021;48.670;6.184;2023-05-25T03:48:10;99444.50;;;11.92;100.00
50123;BME280;36021;48.670;6.184;2023-05-25T03:50:36;99454.19;;;11.89;100.00
50123;BME280;36021;48.670;6.184;2023-05-25T03:53:04;99452.00;;;11.86;100.00
50123;BME280;36021;48.670;6.184;2023-05-25T03:55:30;99461.22;;;11.77;100.00
50123;BME280;36021;48.670;6.184;2023-05-25T03:57:57;99458.81;;;11.70;100.00
50123;BME280;36021;48.670;6.184;2023-05-25T04:00:25;99464.56;;;11.74;100.00
50123;BME280;36021;48.670;6.184;2023-05-25T04:02:50;99465.16;;;11.71;100.00
50123;BME280;36021;48.670;6.184;2023-05-25T04:05:16;99464.56;;;11.69;100.00
50123;BME280;36021;48.670;6.184;2023-05-25T04:07:42;99468.47;;;11.68;100.00
50123;BME280;36021;48.670;6.184;2023-05-25T04:10:09;99468.84;;;11.56;100.00
50123;BME280;36021;48.670;6.184;2023-05-25T04:12:38;99475.72;;;11.59;100.00
50123;BME280;36021;48.670;6.184;2023-05-25T04:15:04;99458.88;;;11.60;100.00
50123;BME280;36021;48.670;6.184;2023-05-25T04:17:38;99470.75;;;11.61;100.00
50123;BME280;36021;48.670;6.184;2023-05-25T04:20:04;99479.13;;;11.50;100.00
50123;BME280;36021;48.670;6.184;2023-05-25T04:22:29;99481.88;;;11.50;100.00
50123;BME280;36021;48.670;6.184;2023-05-25T04:24:55;99480.22;;;11.49;100.00
50123;BME280;36021;48.670;6.184;2023-05-25T04:27:21;99484.00;;;11.59;100.00
50123;BME280;36021;48.670;6.184;2023-05-25T04:29:49;99493.34;;;11.63;100.00
50123;BME280;36021;48.670;6.184;2023-05-25T04:32:33;99487.78;;;11.73;100.00
50123;BME280;36021;48.670;6.184;2023-05-25T04:35:24;99497.72;;;11.74;100.00
50123;BME280;36021;48.670;6.184;2023-05-25T04:37:51;99496.59;;;11.70;100.00
50123;BME280;36021;48.670;6.184;2023-05-25T04:40:20;99489.09;;;11.80;100.00
50123;BME280;36021;48.670;6.184;2023-05-25T04:42:46;99488.50;;;11.83;100.00
50123;BME280;36021;48.670;6.184;2023-05-25T04:45:12;99496.56;;;11.75;100.00
50123;BME280;36021;48.670;6.184;2023-05-25T04:47:42;99491.94;;;11.65;100.00
50123;BME280;36021;48.670;6.184;2023-05-25T04:50:11;99497.00;;;11.58;100.00
50123;BME280;36021;48.670;6.184;2023-05-25T04:52:37;99504.50;;;11.52;100.00
50123;BME280;36021;48.670;6.184;2023-05-25T04:55:04;99503.63;;;11.57;100.00
50123;BME280;36021;48.670;6.184;2023-05-25T04:57:32;99503.31;;;11.59;100.00
50123;BME280;36021;48.670;6.184;2023-05-25T04:59:59;99505.44;;;11.72;100.00
50123;BME280;36021;48.670;6.184;2023-05-25T05:02:25;99501.00;;;11.76;100.00
50123;BME280;36021;48.670;6.184;2023-05-25T05:04:52;99486.16;;;11.67;100.00
50123;BME280;36021;48.670;6.184;2023-05-25T05:07:19;99494.94;;;11.69;100.00
50123;BME280;36021;48.670;6.184;2023-05-25T05:09:48;99504.34;;;11.73;100.00
50123;BME280;36021;48.670;6.184;2023-05-25T05:12:14;99506.41;;;11.86;100.00
50123;BME280;36021;48.670;6.184;2023-05-25T05:14:45;99504.44;;;11.91;100.00
50123;BME280;36021;48.670;6.184;2023-05-25T05:17:11;99510.19;;;11.95;100.00
50123;BME280;36021;48.670;6.184;2023-05-25T05:19:37;99516.78;;;11.99;100.00
50123;BME280;36021;48.670;6.184;2023-05-25T05:22:04;99519.13;;;12.11;100.00
50123;BME280;36021;48.670;6.184;2023-05-25T05:24:30;99512.03;;;12.05;100.00
50123;BME280;36021;48.670;6.184;2023-05-25T05:26:57;99521.63;;;12.12;100.00
50123;BME280;36021;48.670;6.184;2023-05-25T05:29:26;99527.16;;;12.12;100.00
50123;BME280;36021;48.670;6.184;2023-05-25T05:31:54;99530.44;;;12.14;100.00
50123;BME280;36021;48.670;6.184;2023-05-25T05:34:20;99525.38;;;12.21;100.00
50123;BME280;36021;48.670;6.184;2023-05-25T05:36:46;99537.50;;;12.25;100.00
50123;BME280;36021;48.670;6.184;2023-05-25T05:39:12;99535.22;;;12.32;100.00
50123;BME280;36021;48.670;6.184;2023-05-25T05:41:38;99539.28;;;12.40;100.00
50123;BME280;36021;48.670;6.184;2023-05-25T05:44:08;99535.50;;;12.31;100.00
50123;BME280;36021;48.670;6.184;2023-05-25T05:46:33;99532.47;;;12.32;100.00
50123;BME280;36021;48.670;6.184;2023-05-25T05:48:59;99538.09;;;12.46;100.00
50123;BME280;36021;48.670;6.184;2023-05-25T05:51:25;99536.84;;;12.57;100.00
50123;BME280;36021;48.670;6.184;2023-05-25T05:53:52;99532.09;;;12.63;100.00
50123;BME280;36021;48.670;6.184;2023-05-25T05:56:18;99535.66;;;12.63;100.00
50123;BME280;36021;48.670;6.184;2023-05-25T05:58:46;99540.28;;;12.73;100.00
50123;BME280;36021;48.670;6.184;2023-05-25T06:01:17;99543.47;;;12.80;100.00
50123;BME280;36021;48.670;6.184;2023-05-25T06:03:43;99545.00;;;12.91;100.00
50123;BME280;36021;48.670;6.184;2023-05-25T06:06:11;99548.13;;;13.03;100.00
50123;BME280;36021;48.670;6.184;2023-05-25T06:08:37;99545.91;;;13.05;100.00
50123;BME280;36021;48.670;6.184;2023-05-25T06:11:05;99538.13;;;13.07;100.00
50123;BME280;36021;48.670;6.184;2023-05-25T06:13:31;99534.41;;;13.17;100.00
50123;BME280;36021;48.670;6.184;2023-05-25T06:15:57;99540.91;;;13.26;100.00
50123;BME280;36021;48.670;6.184;2023-05-25T06:18:23;99534.66;;;13.20;100.00
50123;BME280;36021;48.670;6.184;2023-05-25T06:20:49;99535.31;;;13.12;100.00
50123;BME280;36021;48.670;6.184;2023-05-25T06:23:15;99532.63;;;13.26;100.00
50123;BME280;36021;48.670;6.184;2023-05-25T06:25:43;99536.72;;;13.47;100.00
50123;BME280;36021;48.670;6.184;2023-05-25T06:28:09;99534.41;;;13.54;100.00
50123;BME280;36021;48.670;6.184;2023-05-25T06:30:37;99531.91;;;13.52;100.00
50123;BME280;36021;48.670;6.184;2023-05-25T06:33:04;99535.13;;;13.60;100.00
50123;BME280;36021;48.670;6.184;2023-05-25T06:35:30;99542.31;;;13.61;100.00
50123;BME280;36021;48.670;6.184;2023-05-25T06:37:56;99534.53;;;13.63;100.00
50123;BME280;36021;48.670;6.184;2023-05-25T06:40:22;99531.50;;;13.78;100.00
50123;BME280;36021;48.670;6.184;2023-05-25T06:42:49;99530.03;;;13.99;100.00
50123;BME280;36021;48.670;6.184;2023-05-25T06:45:33;99531.38;;;14.15;100.00
50123;BME280;36021;48.670;6.184;2023-05-25T06:48:01;99534.56;;;14.22;100.00
50123;BME280;36021;48.670;6.184;2023-05-25T06:50:27;99534.69;;;14.31;100.00
50123;BME280;36021;48.670;6.184;2023-05-25T06:52:53;99533.69;;;14.40;100.00
50123;BME280;36021;48.670;6.184;2023-05-25T06:55:18;99526.72;;;14.43;100.00
50123;BME280;36021;48.670;6.184;2023-05-25T06:57:44;99522.50;;;14.59;100.00
50123;BME280;36021;48.670;6.184;2023-05-25T07:00:11;99516.22;;;14.67;100.00
50123;BME280;36021;48.670;6.184;2023-05-25T07:02:38;99533.38;;;14.83;100.00
50123;BME280;36021;48.670;6.184;2023-05-25T07:05:04;99538.09;;;14.82;100.00
50123;BME280;36021;48.670;6.184;2023-05-25T07:07:31;99541.38;;;14.98;100.00
50123;BME280;36021;48.670;6.184;2023-05-25T07:09:58;99545.66;;;15.18;100.00
50123;BME280;36021;48.670;6.184;2023-05-25T07:12:24;99539.38;;;15.12;100.00
50123;BME280;36021;48.670;6.184;2023-05-25T07:14:49;99535.38;;;15.18;100.00
50123;BME280;36021;48.670;6.184;2023-05-25T07:17:15;99540.97;;;15.40;100.00
50123;BME280;36021;48.670;6.184;2023-05-25T07:19:41;99536.44;;;15.44;100.00
50123;BME280;36021;48.670;6.184;2023-05-25T07:22:08;99535.94;;;15.64;100.00
50123;BME280;36021;48.670;6.184;2023-05-25T07:24:37;99530.66;;;15.77;100.00
50123;BME280;36021;48.670;6.184;2023-05-25T07:27:03;99531.91;;;15.93;100.00
50123;BME280;36021;48.670;6.184;2023-05-25T07:29:28;99524.06;;;15.95;100.00
50123;BME280;36021;48.670;6.184;2023-05-25T07:31:54;99523.44;;;15.76;100.00
50123;BME280;36021;48.670;6.184;2023-05-25T07:34:19;99522.75;;;15.92;100.00
50123;BME280;36021;48.670;6.184;2023-05-25T07:36:46;99526.19;;;15.98;100.00
50123;BME280;36021;48.670;6.184;2023-05-25T07:39:11;99514.44;;;16.01;100.00
50123;BME280;36021;48.670;6.184;2023-05-25T07:41:37;99515.59;;;16.00;100.00
50123;BME280;36021;48.670;6.184;2023-05-25T07:44:03;99526.75;;;16.08;100.00
50123;BME280;36021;48.670;6.184;2023-05-25T07:46:29;99520.75;;;16.15;100.00
50123;BME280;36021;48.670;6.184;2023-05-25T07:48:55;99524.91;;;16.26;100.00
50123;BME280;36021;48.670;6.184;2023-05-25T07:51:22;99525.09;;;16.38;100.00
50123;BME280;36021;48.670;6.184;2023-05-25T07:53:51;99541.81;;;16.47;100.00
50123;BME280;36021;48.670;6.184;2023-05-25T07:56:18;99535.69;;;16.58;100.00
50123;BME280;36021;48.670;6.184;2023-05-25T07:58:45;99541.28;;;16.58;100.00
50123;BME280;36021;48.670;6.184;2023-05-25T08:01:10;99536.50;;;16.59;100.00
50123;BME280;36021;48.670;6.184;2023-05-25T08:03:36;99539.63;;;16.66;100.00
50123;BME280;36021;48.670;6.184;2023-05-25T08:06:02;99531.63;;;16.64;100.00
50123;BME280;36021;48.670;6.184;2023-05-25T08:08:28;99528.03;;;16.73;100.00
50123;BME280;36021;48.670;6.184;2023-05-25T08:10:54;99535.59;;;16.81;100.00
50123;BME280;36021;48.670;6.184;2023-05-25T08:13:20;99537.88;;;16.79;100.00
50123;BME280;36021;48.670;6.184;2023-05-25T08:15:45;99543.47;;;16.87;100.00
50123;BME280;36021;48.670;6.184;2023-05-25T08:18:11;99534.66;;;16.94;100.00
50123;BME280;36021;48.670;6.184;2023-05-25T08:20:37;99543.66;;;16.91;100.00
50123;BME280;36021;48.670;6.184;2023-05-25T08:23:02;99543.97;;;16.89;100.00
50123;BME280;36021;48.670;6.184;2023-05-25T08:25:29;99540.06;;;16.99;100.00
50123;BME280;36021;48.670;6.184;2023-05-25T08:27:55;99543.38;;;17.09;100.00
50123;BME280;36021;48.670;6.184;2023-05-25T08:30:22;99551.72;;;17.18;100.00
50123;BME280;36021;48.670;6.184;2023-05-25T08:32:48;99547.31;;;17.26;100.00
50123;BME280;36021;48.670;6.184;2023-05-25T08:35:13;99547.97;;;17.31;100.00
50123;BME280;36021;48.670;6.184;2023-05-25T08:37:40;99549.31;;;17.42;100.00
50123;BME280;36021;48.670;6.184;2023-05-25T08:40:14;99551.78;;;17.52;100.00
50123;BME280;36021;48.670;6.184;2023-05-25T08:42:44;99554.75;;;17.64;100.00
50123;BME280;36021;48.670;6.184;2023-05-25T08:45:10;99555.56;;;17.65;100.00
50123;BME280;36021;48.670;6.184;2023-05-25T08:47:41;99557.53;;;17.73;100.00
50123;BME280;36021;48.670;6.184;2023-05-25T08:50:08;99549.16;;;17.82;100.00
50123;BME280;36021;48.670;6.184;2023-05-25T08:52:43;99556.72;;;17.90;100.00
50123;BME280;36021;48.670;6.184;2023-05-25T08:55:11;99556.84;;;17.93;100.00
50123;BME280;36021;48.670;6.184;2023-05-25T09:00:10;99552.41;;;18.01;100.00
50123;BME280;36021;48.670;6.184;2023-05-25T09:02:44;99573.09;;;18.00;100.00
50123;BME280;36021;48.670;6.184;2023-05-25T09:05:14;99565.19;;;18.10;100.00
50123;BME280;36021;48.670;6.184;2023-05-25T09:07:42;99557.47;;;18.16;100.00
50123;BME280;36021;48.670;6.184;2023-05-25T09:10:10;99553.06;;;18.15;100.00
50123;BME280;36021;48.670;6.184;2023-05-25T09:12:37;99568.94;;;18.23;100.00
50123;BME280;36021;48.670;6.184;2023-05-25T09:15:03;99564.81;;;18.29;100.00
50123;BME280;36021;48.670;6.184;2023-05-25T09:17:29;99560.22;;;18.33;100.00
50123;BME280;36021;48.670;6.184;2023-05-25T09:19:55;99561.66;;;18.39;100.00
50123;BME280;36021;48.670;6.184;2023-05-25T09:22:20;99563.00;;;18.42;100.00
50123;BME280;36021;48.670;6.184;2023-05-25T09:24:46;99549.84;;;18.51;100.00
50123;BME280;36021;48.670;6.184;2023-05-25T09:27:17;99556.69;;;18.62;100.00
50123;BME280;36021;48.670;6.184;2023-05-25T09:29:46;99550.31;;;18.61;100.00
50123;BME280;36021;48.670;6.184;2023-05-25T09:32:11;99551.56;;;18.72;100.00
50123;BME280;36021;48.670;6.184;2023-05-25T09:34:37;99556.09;;;18.86;100.00
50123;BME280;36021;48.670;6.184;2023-05-25T09:37:11;99556.53;;;18.96;100.00
50123;BME280;36021;48.670;6.184;2023-05-25T09:39:42;99557.66;;;19.04;100.00
50123;BME280;36021;48.670;6.184;2023-05-25T09:42:10;99558.06;;;19.14;100.00
50123;BME280;36021;48.670;6.184;2023-05-25T09:44:36;99551.25;;;19.24;100.00
50123;BME280;36021;48.670;6.184;2023-05-25T09:47:03;99554.00;;;19.33;100.00
50123;BME280;36021;48.670;6.184;2023-05-25T09:49:29;99561.53;;;19.41;100.00
50123;BME280;36021;48.670;6.184;2023-05-25T09:51:56;99562.63;;;19.48;100.00
50123;BME280;36021;48.670;6.184;2023-05-25T09:54:22;99546.81;;;19.52;100.00
50123;BME280;36021;48.670;6.184;2023-05-25T09:56:48;99549.25;;;19.54;100.00
50123;BME280;36021;48.670;6.184;2023-05-25T09:59:14;99557.59;;;19.62;100.00
50123;BME280;36021;48.670;6.184;2023-05-25T10:01:41;99555.75;;;19.66;100.00
50123;BME280;36021;48.670;6.184;2023-05-25T10:04:08;99565.63;;;19.64;100.00
50123;BME280;36021;48.670;6.184;2023-05-25T10:06:37;99562.69;;;19.60;100.00
50123;BME280;36021;48.670;6.184;2023-05-25T10:09:05;99554.03;;;19.74;100.00
50123;BME280;36021;48.670;6.184;2023-05-25T10:11:33;99563.66;;;19.85;100.00
50123;BME280;36021;48.670;6.184;2023-05-25T10:14:05;99557.91;;;20.02;100.00
50123;BME280;36021;48.670;6.184;2023-05-25T10:16:32;99562.44;;;20.07;100.00
50123;BME280;36021;48.670;6.184;2023-05-25T10:19:18;99565.97;;;20.16;100.00
50123;BME280;36021;48.670;6.184;2023-05-25T10:22:01;99559.22;;;20.17;100.00
50123;BME280;36021;48.670;6.184;2023-05-25T10:26:58;99562.56;;;20.31;100.00
50123;BME280;36021;48.670;6.184;2023-05-25T10:29:27;99564.44;;;20.39;100.00
50123;BME280;36021;48.670;6.184;2023-05-25T10:31:53;99564.22;;;20.44;100.00
50123;BME280;36021;48.670;6.184;2023-05-25T10:34:20;99573.75;;;20.31;100.00
50123;BME280;36021;48.670;6.184;2023-05-25T10:36:46;99573.31;;;20.41;100.00
50123;BME280;36021;48.670;6.184;2023-05-25T10:39:14;99564.69;;;20.46;100.00
50123;BME280;36021;48.670;6.184;2023-05-25T10:41:41;99561.88;;;20.58;100.00
50123;BME280;36021;48.670;6.184;2023-05-25T10:44:08;99572.88;;;20.63;100.00
50123;BME280;36021;48.670;6.184;2023-05-25T10:46:34;99561.94;;;20.70;100.00
50123;BME280;36021;48.670;6.184;2023-05-25T10:49:00;99559.47;;;20.81;100.00
50123;BME280;36021;48.670;6.184;2023-05-25T10:51:41;99566.63;;;20.91;100.00
50123;BME280;36021;48.670;6.184;2023-05-25T10:54:12;99563.22;;;20.97;100.00
50123;BME280;36021;48.670;6.184;2023-05-25T10:57:10;99551.66;;;21.11;100.00
50123;BME280;36021;48.670;6.184;2023-05-25T10:59:40;99562.06;;;21.22;100.00
50123;BME280;36021;48.670;6.184;2023-05-25T11:02:09;99562.19;;;21.26;100.00
50123;BME280;36021;48.670;6.184;2023-05-25T11:04:35;99563.34;;;21.25;100.00
50123;BME280;36021;48.670;6.184;2023-05-25T11:07:05;99558.66;;;21.29;100.00
50123;BME280;36021;48.670;6.184;2023-05-25T11:09:40;99560.06;;;21.35;100.00
50123;BME280;36021;48.670;6.184;2023-05-25T11:12:16;99556.22;;;21.27;100.00
50123;BME280;36021;48.670;6.184;2023-05-25T11:14:42;99562.41;;;21.33;100.00
50123;BME280;36021;48.670;6.184;2023-05-25T11:17:11;99554.41;;;21.47;100.00
50123;BME280;36021;48.670;6.184;2023-05-25T11:19:40;99546.97;;;21.39;100.00
50123;BME280;36021;48.670;6.184;2023-05-25T11:24:38;99546.38;;;21.73;100.00
50123;BME280;36021;48.670;6.184;2023-05-25T11:27:04;99544.69;;;21.69;100.00
50123;BME280;36021;48.670;6.184;2023-05-25T11:29:31;99537.31;;;21.64;99.13
50123;BME280;36021;48.670;6.184;2023-05-25T11:31:56;99535.66;;;21.63;99.62
50123;BME280;36021;48.670;6.184;2023-05-25T11:34:24;99531.09;;;21.71;100.00
50123;BME280;36021;48.670;6.184;2023-05-25T11:36:54;99531.63;;;21.89;100.00
50123;BME280;36021;48.670;6.184;2023-05-25T11:39:20;99543.63;;;22.01;100.00
50123;BME280;36021;48.670;6.184;2023-05-25T11:41:52;99533.16;;;22.14;98.19
50123;BME280;36021;48.670;6.184;2023-05-25T11:44:28;99527.47;;;22.26;99.16
50123;BME280;36021;48.670;6.184;2023-05-25T11:47:00;99535.16;;;22.29;100.00
50123;BME280;36021;48.670;6.184;2023-05-25T11:49:26;99536.00;;;22.45;99.18
50123;BME280;36021;48.670;6.184;2023-05-25T11:51:55;99538.38;;;22.43;99.27
50123;BME280;36021;48.670;6.184;2023-05-25T11:54:29;99538.47;;;22.62;97.20
50123;BME280;36021;48.670;6.184;2023-05-25T11:56:56;99535.69;;;22.78;97.76
50123;BME280;36021;48.670;6.184;2023-05-25T11:59:25;99529.31;;;22.81;94.35
50123;BME280;36021;48.670;6.184;2023-05-25T12:02:00;99531.78;;;22.82;91.61
50123;BME280;36021;48.670;6.184;2023-05-25T12:04:27;99530.59;;;22.99;93.05
50123;BME280;36021;48.670;6.184;2023-05-25T12:07:05;99517.88;;;23.05;90.38
50123;BME280;36021;48.670;6.184;2023-05-25T12:09:31;99509.47;;;22.90;92.36
50123;BME280;36021;48.670;6.184;2023-05-25T12:11:58;99520.78;;;23.09;93.75
50123;BME280;36021;48.670;6.184;2023-05-25T12:14:25;99525.97;;;23.07;91.89
50123;BME280;36021;48.670;6.184;2023-05-25T12:16:51;99522.50;;;23.13;90.56
50123;BME280;36021;48.670;6.184;2023-05-25T12:19:17;99509.16;;;23.10;87.57
50123;BME280;36021;48.670;6.184;2023-05-25T12:21:44;99515.59;;;23.11;91.86
50123;BME280;36021;48.670;6.184;2023-05-25T12:24:10;99524.75;;;23.08;90.56
50123;BME280;36021;48.670;6.184;2023-05-25T12:26:48;99525.94;;;23.22;89.80
50123;BME280;36021;48.670;6.184;2023-05-25T12:29:14;99518.00;;;23.28;86.94
50123;BME280;36021;48.670;6.184;2023-05-25T12:31:43;99511.94;;;23.26;88.40
50123;BME280;36021;48.670;6.184;2023-05-25T12:34:12;99530.06;;;23.44;89.83
50123;BME280;36021;48.670;6.184;2023-05-25T12:36:48;99527.25;;;23.63;86.50
50123;BME280;36021;48.670;6.184;2023-05-25T12:44:25;99525.94;;;23.57;82.35
50123;BME280;36021;48.670;6.184;2023-05-25T12:46:55;99529.91;;;23.56;81.55
50123;BME280;36021;48.670;6.184;2023-05-25T12:49:23;99536.44;;;23.79;82.47
50123;BME280;36021;48.670;6.184;2023-05-25T12:51:50;99527.88;;;23.92;76.60
50123;BME280;36021;48.670;6.184;2023-05-25T12:54:16;99528.88;;;24.03;75.44
50123;BME280;36021;48.670;6.184;2023-05-25T12:56:59;99527.22;;;24.17;74.09
50123;BME280;36021;48.670;6.184;2023-05-25T12:59:28;99533.34;;;24.23;74.34
50123;BME280;36021;48.670;6.184;2023-05-25T13:01:54;99526.88;;;24.22;74.09
50123;BME280;36021;48.670;6.184;2023-05-25T13:04:20;99527.66;;;24.42;74.11
50123;BME280;36021;48.670;6.184;2023-05-25T13:06:47;99519.00;;;24.54;74.64
50123;BME280;36021;48.670;6.184;2023-05-25T13:09:14;99504.34;;;24.68;73.30
50123;BME280;36021;48.670;6.184;2023-05-25T13:11:40;99526.97;;;24.71;71.30
50123;BME280;36021;48.670;6.184;2023-05-25T13:14:06;99532.06;;;24.85;68.88